createdAt,value
2018-12-17T00:01:56.792Z,15.40
2018-12-17T00:04:28.762Z,15.57
2018-12-17T00:07:00.450Z,16.17
2018-12-17T00:09:30.232Z,16.23
2018-12-17T00:12:00.000Z,16.97
2018-12-17T00:14:29.677Z,16.80
2018-12-17T00:16:59.565Z,16.93
2018-12-17T00:19:29.365Z,17.70
2018-12-17T00:21:59.171Z,17.57
2018-12-17T00:24:28.883Z,18.13
2018-12-17T00:26:58.553Z,18.53
2018-12-17T00:29:28.309Z,18.50
2018-12-17T00:31:57.989Z,18.70
2018-12-17T00:34:27.830Z,20.13
2018-12-17T00:36:57.573Z,18.80
2018-12-17T00:39:27.234Z,19.10
2018-12-17T00:41:56.988Z,20.13
2018-12-17T00:44:26.666Z,19.13
2018-12-17T00:46:56.591Z,19.50
2018-12-17T00:49:26.452Z,18.03
2018-12-17T00:51:56.127Z,19.63
2018-12-17T00:54:25.829Z,19.00
2018-12-17T00:56:55.665Z,18.77
2018-12-17T00:59:25.349Z,19.00
2018-12-17T01:01:55.034Z,18.13
2018-12-17T01:04:24.704Z,18.07
2018-12-17T01:06:54.366Z,17.97
2018-12-17T01:09:24.109Z,17.87
2018-12-17T01:11:53.783Z,17.20
2018-12-17T01:14:23.569Z,17.63
2018-12-17T01:16:53.331Z,16.40
2018-12-17T01:19:24.147Z,17.97
2018-12-17T01:21:54.182Z,18.70
2018-12-17T01:24:24.037Z,17.07
2018-12-17T01:26:53.809Z,17.30
2018-12-17T01:29:23.496Z,19.07
2018-12-17T01:31:53.397Z,21.70
2018-12-17T01:34:23.087Z,21.83
2018-12-17T01:36:52.800Z,19.43
2018-12-17T01:39:22.686Z,19.13
2018-12-17T01:41:52.373Z,17.30
2018-12-17T01:44:22.258Z,16.07
2018-12-17T01:46:52.105Z,16.30
2018-12-17T01:49:22.024Z,16.43
2018-12-17T01:51:51.872Z,17.97
2018-12-17T01:54:21.564Z,17.07
2018-12-17T01:56:51.229Z,16.23
2018-12-17T01:59:21.049Z,18.67
2018-12-17T02:01:51.070Z,19.67
2018-12-17T02:04:20.809Z,19.57
2018-12-17T02:06:50.460Z,19.90
2018-12-17T02:09:20.125Z,21.53
2018-12-17T02:11:49.881Z,20.57
2018-12-17T02:14:19.636Z,21.60
2018-12-17T02:16:49.420Z,21.30
2018-12-17T02:19:19.085Z,21.60
2018-12-17T02:21:48.729Z,20.57
2018-12-17T02:24:18.392Z,20.50
2018-12-17T02:26:48.249Z,20.10
2018-12-17T02:29:18.024Z,19.60
2018-12-17T02:31:47.813Z,19.53
2018-12-17T02:34:17.586Z,19.33
2018-12-17T02:36:47.415Z,18.77
2018-12-17T02:39:17.083Z,19.73
2018-12-17T02:41:46.861Z,18.70
2018-12-17T02:44:16.895Z,19.90
2018-12-17T02:46:46.708Z,19.00
2018-12-17T02:49:16.436Z,19.60
2018-12-17T02:51:46.332Z,20.00
2018-12-17T02:54:16.069Z,20.47
2018-12-17T02:56:45.825Z,21.73
2018-12-17T02:59:15.485Z,20.33
2018-12-17T03:01:45.197Z,20.30
2018-12-17T03:04:14.975Z,21.97
2018-12-17T03:06:44.792Z,19.87
2018-12-17T03:09:15.052Z,20.60
2018-12-17T03:11:45.007Z,19.30
2018-12-17T03:14:14.694Z,20.73
2018-12-17T03:16:44.353Z,20.70
2018-12-17T03:19:14.151Z,19.30
2018-12-17T03:21:44.011Z,20.43
2018-12-17T03:24:15.532Z,19.70
2018-12-17T03:26:45.299Z,20.07
2018-12-17T03:29:15.072Z,20.63
2018-12-17T03:31:45.174Z,20.13
2018-12-17T03:34:14.900Z,19.17
2018-12-17T03:36:44.592Z,19.53
2018-12-17T03:39:14.281Z,20.80
2018-12-17T03:41:44.113Z,20.33
2018-12-17T03:44:14.107Z,20.27
2018-12-17T03:46:43.885Z,19.27
2018-12-17T03:49:13.578Z,19.53
2018-12-17T03:51:43.361Z,19.03
2018-12-17T03:54:13.147Z,19.03
2018-12-17T03:56:42.908Z,18.60
2018-12-17T03:59:12.584Z,18.77
2018-12-17T04:01:42.253Z,19.57
2018-12-17T04:04:11.984Z,19.60
2018-12-17T04:06:41.638Z,20.27
2018-12-17T04:09:11.309Z,20.60
2018-12-17T04:11:41.116Z,19.67
2018-12-17T04:14:10.872Z,19.90
2018-12-17T04:16:40.523Z,19.23
2018-12-17T04:19:10.352Z,21.30
2018-12-17T04:21:40.105Z,20.97
2018-12-17T04:24:09.769Z,21.87
2018-12-17T04:26:41.452Z,21.63
2018-12-17T04:29:11.138Z,21.00
2018-12-17T04:31:40.867Z,21.17
2018-12-17T04:34:10.635Z,20.70
2018-12-17T04:36:40.348Z,21.43
2018-12-17T04:39:10.173Z,24.53
2018-12-17T04:41:39.988Z,24.40
2018-12-17T04:44:09.761Z,24.00
2018-12-17T04:46:39.446Z,25.20
2018-12-17T04:49:09.161Z,25.30
2018-12-17T04:51:39.068Z,24.67
2018-12-17T04:54:08.847Z,25.10
2018-12-17T04:56:38.574Z,25.23
2018-12-17T04:59:14.618Z,26.87
2018-12-17T05:01:40.024Z,26.57
2018-12-17T05:04:09.724Z,28.40
2018-12-17T05:06:39.456Z,30.80
2018-12-17T05:09:09.188Z,32.63
2018-12-17T05:11:38.980Z,33.90
2018-12-17T05:14:08.634Z,33.23
2018-12-17T05:16:38.361Z,34.20
2018-12-17T05:19:08.121Z,35.20
2018-12-17T05:21:37.808Z,34.03
2018-12-17T05:24:08.505Z,35.33
2018-12-17T05:26:38.218Z,34.13
2018-12-17T05:29:07.936Z,32.73
2018-12-17T05:31:37.620Z,32.10
2018-12-17T05:34:07.273Z,32.13
2018-12-17T05:36:36.943Z,32.77
2018-12-17T05:39:07.176Z,33.10
2018-12-17T05:41:38.361Z,33.37
2018-12-17T05:44:08.010Z,35.17
2018-12-17T05:46:37.689Z,31.30
2018-12-17T05:49:07.340Z,32.90
2018-12-17T05:51:37.123Z,35.60
2018-12-17T05:54:07.042Z,37.60
2018-12-17T05:56:36.752Z,37.80
2018-12-17T05:59:06.429Z,37.60
2018-12-17T06:01:36.117Z,38.93
2018-12-17T06:04:05.986Z,37.67
2018-12-17T06:06:35.878Z,38.90
2018-12-17T06:09:09.672Z,38.27
2018-12-17T06:11:39.544Z,39.27
2018-12-17T06:14:09.436Z,37.60
2018-12-17T06:16:39.264Z,40.87
2018-12-17T06:19:09.014Z,38.60
2018-12-17T06:21:38.808Z,37.50
2018-12-17T06:24:08.536Z,36.10
2018-12-17T06:26:38.228Z,36.50
2018-12-17T06:29:08.097Z,36.87
2018-12-17T06:31:37.876Z,39.43
2018-12-17T06:34:07.540Z,37.87
2018-12-17T06:36:37.413Z,38.97
2018-12-17T06:39:08.483Z,39.07
2018-12-17T06:41:38.168Z,40.83
2018-12-17T06:44:07.963Z,39.33
2018-12-17T06:46:37.658Z,38.10
2018-12-17T06:49:07.493Z,37.23
2018-12-17T06:51:37.449Z,36.83
2018-12-17T06:54:07.152Z,35.30
2018-12-17T06:56:36.936Z,35.70
2018-12-17T06:59:06.639Z,35.57
2018-12-17T07:01:36.433Z,36.27
2018-12-17T07:04:06.099Z,34.77
2018-12-17T07:06:36.002Z,33.13
2018-12-17T07:09:06.841Z,32.83
2018-12-17T07:11:38.059Z,33.57
2018-12-17T07:14:07.865Z,33.43
2018-12-17T07:16:37.596Z,33.23
2018-12-17T07:19:07.267Z,33.17
2018-12-17T07:21:36.940Z,33.17
2018-12-17T07:24:06.734Z,32.90
2018-12-17T07:26:36.513Z,32.47
2018-12-17T07:29:06.253Z,31.07
2018-12-17T07:31:35.969Z,31.43
2018-12-17T07:34:05.712Z,29.17
2018-12-17T07:36:35.598Z,29.43
2018-12-17T07:39:08.139Z,28.43
2018-12-17T07:41:38.031Z,27.73
2018-12-17T07:44:07.876Z,29.47
2018-12-17T07:46:37.616Z,31.00
2018-12-17T07:49:07.280Z,31.63
2018-12-17T07:51:37.112Z,31.27
2018-12-17T07:54:06.925Z,30.63
2018-12-17T07:56:37.064Z,30.57
2018-12-17T07:59:06.956Z,30.57
2018-12-17T08:01:36.752Z,30.83
2018-12-17T08:04:06.408Z,31.17
2018-12-17T08:06:36.624Z,31.13
2018-12-17T08:09:07.656Z,31.87
2018-12-17T08:11:39.273Z,31.80
2018-12-17T08:14:09.032Z,32.33
2018-12-17T08:16:38.700Z,32.83
2018-12-17T08:19:08.388Z,30.30
2018-12-17T08:21:38.304Z,30.03
2018-12-17T08:24:09.248Z,30.97
2018-12-17T08:26:39.023Z,29.93
2018-12-17T08:29:08.717Z,30.53
2018-12-17T08:31:38.574Z,34.37
2018-12-17T08:34:08.504Z,33.43
2018-12-17T08:36:38.276Z,31.87
2018-12-17T08:39:08.225Z,32.10
2018-12-17T08:41:38.074Z,29.80
2018-12-17T08:44:07.940Z,29.70
2018-12-17T08:46:37.719Z,27.80
2018-12-17T08:49:07.541Z,30.00
2018-12-17T08:51:37.356Z,28.03
2018-12-17T08:54:08.120Z,30.40
2018-12-17T08:56:37.892Z,30.73
2018-12-17T08:59:07.693Z,29.60
2018-12-17T09:01:37.626Z,31.07
2018-12-17T09:04:07.448Z,29.67
2018-12-17T09:06:37.152Z,30.50
2018-12-17T09:09:07.792Z,28.10
2018-12-17T09:11:39.529Z,27.40
2018-12-17T09:14:09.241Z,26.93
2018-12-17T09:16:38.961Z,25.83
2018-12-17T09:19:08.886Z,27.70
2018-12-17T09:21:38.894Z,30.13
2018-12-17T09:24:08.777Z,27.97
2018-12-17T09:26:38.445Z,30.47
2018-12-17T09:29:08.276Z,27.93
2018-12-17T09:31:37.991Z,27.17
2018-12-17T09:34:07.660Z,26.30
2018-12-17T09:36:37.324Z,25.93
2018-12-17T09:39:08.380Z,25.40
2018-12-17T09:41:40.136Z,27.70
2018-12-17T09:44:09.875Z,24.37
2018-12-17T09:46:39.720Z,27.60
2018-12-17T09:49:09.492Z,27.90
2018-12-17T09:51:39.292Z,27.73
2018-12-17T09:54:09.056Z,27.20
2018-12-17T09:56:38.712Z,27.60
2018-12-17T09:59:08.464Z,27.87
2018-12-17T10:01:38.131Z,26.60
2018-12-17T10:04:07.981Z,26.60
2018-12-17T10:06:38.844Z,24.13
2018-12-17T10:09:08.560Z,22.67
2018-12-17T10:11:40.268Z,23.87
2018-12-17T10:14:10.118Z,23.27
2018-12-17T10:16:39.756Z,24.40
2018-12-17T10:19:09.448Z,23.57
2018-12-17T10:21:39.279Z,23.10
2018-12-17T10:24:09.253Z,23.83
2018-12-17T10:26:39.012Z,22.80
2018-12-17T10:29:08.789Z,23.80
2018-12-17T10:31:38.605Z,23.07
2018-12-17T10:34:08.309Z,21.50
2018-12-17T10:36:37.964Z,23.93
2018-12-17T10:39:08.211Z,23.33
2018-12-17T10:41:39.853Z,21.87
2018-12-17T10:44:11.544Z,21.40
2018-12-17T10:46:41.204Z,21.17
2018-12-17T10:49:10.961Z,23.23
2018-12-17T10:51:40.682Z,22.70
2018-12-17T10:54:10.416Z,22.57
2018-12-17T10:56:40.199Z,22.07
2018-12-17T10:59:09.916Z,20.73
2018-12-17T11:01:45.725Z,19.40
2018-12-17T11:04:21.255Z,20.67
2018-12-17T11:06:50.917Z,18.87
2018-12-17T11:09:20.840Z,20.03
2018-12-17T11:11:50.547Z,18.80
2018-12-17T11:14:20.365Z,18.77
2018-12-17T11:16:50.384Z,18.50
2018-12-17T11:19:20.152Z,18.43
2018-12-17T11:21:49.999Z,18.10
2018-12-17T11:24:19.816Z,18.50
2018-12-17T11:26:49.618Z,17.83
2018-12-17T11:29:19.362Z,23.03
2018-12-17T11:31:49.025Z,19.03
2018-12-17T11:34:18.707Z,25.10
2018-12-17T11:36:48.495Z,28.03
2018-12-17T11:39:18.235Z,23.23
2018-12-17T11:41:48.169Z,16.73
2018-12-17T11:44:18.012Z,19.23
2018-12-17T11:46:47.761Z,21.53
2018-12-17T11:49:17.576Z,20.20
2018-12-17T11:51:47.428Z,28.77
2018-12-17T11:54:17.260Z,22.50
2018-12-17T11:58:53.635Z,22.70
2018-12-17T12:01:25.343Z,22.60
2018-12-17T12:03:55.040Z,22.43
2018-12-17T12:06:24.765Z,28.80
2018-12-17T12:08:54.424Z,22.73
2018-12-17T12:11:24.182Z,109.77
2018-12-17T12:13:53.845Z,42.53
2018-12-17T12:16:23.492Z,23.27
2018-12-17T12:18:53.337Z,26.57
2018-12-17T12:21:22.980Z,25.40
2018-12-17T12:23:52.728Z,21.73
2018-12-17T12:26:22.372Z,19.73
2018-12-17T12:28:53.052Z,20.40
2018-12-17T12:31:22.844Z,22.00
2018-12-17T12:33:52.623Z,22.43
2018-12-17T12:36:22.273Z,22.47
2018-12-17T12:38:51.924Z,21.80
2018-12-17T12:41:21.677Z,22.10
2018-12-17T12:43:51.436Z,21.70
2018-12-17T12:46:21.160Z,22.50
2018-12-17T12:48:50.900Z,20.87
2018-12-17T12:51:20.540Z,22.53
2018-12-17T12:53:50.433Z,22.67
2018-12-17T12:56:20.169Z,23.27
2018-12-17T12:58:49.897Z,21.47
2018-12-17T13:01:19.549Z,22.03
2018-12-17T13:03:49.383Z,21.50
2018-12-17T13:06:19.108Z,22.10
2018-12-17T13:08:48.812Z,22.60
2018-12-17T13:11:18.460Z,21.43
2018-12-17T13:13:48.184Z,22.90
2018-12-17T13:16:17.841Z,21.73
2018-12-17T13:18:47.594Z,22.17
2018-12-17T13:21:17.283Z,22.57
2018-12-17T13:23:47.087Z,23.23
2018-12-17T13:26:16.877Z,23.13
2018-12-17T13:28:46.528Z,23.63
2018-12-17T13:31:16.258Z,24.00
2018-12-17T13:33:45.900Z,22.23
2018-12-17T13:36:15.548Z,23.47
2018-12-17T13:38:45.299Z,21.43
2018-12-17T13:41:15.055Z,22.47
2018-12-17T13:43:44.720Z,22.30
2018-12-17T13:46:14.420Z,22.23
2018-12-17T13:48:44.255Z,22.83
2018-12-17T13:51:19.336Z,23.33
2018-12-17T13:53:48.991Z,22.00
2018-12-17T13:56:18.629Z,21.57
2018-12-17T13:58:48.395Z,21.93
2018-12-17T14:01:21.720Z,21.70
2018-12-17T14:03:49.707Z,21.00
2018-12-17T14:06:19.402Z,20.93
2018-12-17T14:08:49.111Z,21.13
2018-12-17T14:11:18.791Z,21.07
2018-12-17T14:13:48.563Z,21.00
2018-12-17T14:16:20.213Z,20.90
2018-12-17T14:18:55.236Z,21.17
2018-12-17T14:21:59.819Z,20.03
2018-12-17T14:24:29.759Z,25.17
2018-12-17T14:26:59.445Z,22.37
2018-12-17T14:29:29.383Z,29.87
2018-12-17T14:31:59.062Z,21.20
2018-12-17T14:34:28.808Z,22.07
2018-12-17T14:36:58.632Z,21.07
2018-12-17T14:39:28.516Z,27.40
2018-12-17T14:41:58.272Z,19.70
2018-12-17T14:44:33.195Z,19.37
2018-12-17T14:47:03.328Z,21.90
2018-12-17T14:49:33.099Z,19.63
2018-12-17T14:52:02.819Z,19.60
2018-12-17T14:54:32.467Z,17.90
2018-12-17T14:57:02.147Z,18.53
2018-12-17T14:59:32.831Z,17.47
2018-12-17T15:02:02.471Z,18.97
2018-12-17T15:04:32.169Z,17.50
2018-12-17T15:07:01.855Z,18.57
2018-12-17T15:09:31.536Z,16.77
2018-12-17T15:12:01.263Z,16.37
2018-12-17T15:14:31.945Z,15.43
2018-12-17T15:17:01.583Z,15.70
2018-12-17T15:19:31.291Z,14.73
2018-12-17T15:22:00.980Z,14.43
2018-12-17T15:24:30.769Z,14.00
2018-12-17T15:27:00.467Z,15.20
2018-12-17T15:29:30.175Z,15.77
2018-12-17T15:31:59.856Z,14.97
2018-12-17T15:34:29.561Z,16.00
2018-12-17T15:36:59.206Z,14.47
2018-12-17T15:39:28.912Z,14.23
2018-12-17T15:41:58.710Z,13.73
2018-12-17T15:44:28.973Z,14.37
2018-12-17T15:46:58.712Z,13.60
2018-12-17T15:49:28.404Z,13.80
2018-12-17T15:51:58.104Z,13.83
2018-12-17T15:54:27.760Z,14.97
2018-12-17T15:56:57.528Z,16.73
2018-12-17T15:59:27.255Z,17.43
2018-12-17T16:01:56.926Z,15.97
2018-12-17T16:04:26.657Z,17.00
2018-12-17T16:06:56.352Z,15.77
2018-12-17T16:09:25.996Z,15.70
2018-12-17T16:11:55.656Z,15.77
2018-12-17T16:14:25.312Z,15.20
2018-12-17T16:16:55.077Z,14.60
2018-12-17T16:19:24.760Z,14.27
2018-12-17T16:21:54.463Z,15.83
2018-12-17T16:24:24.156Z,14.03
2018-12-17T16:26:53.860Z,15.30
2018-12-17T16:29:23.605Z,15.73
2018-12-17T16:31:57.338Z,15.53
2018-12-17T16:34:24.892Z,17.33
2018-12-17T16:36:54.700Z,16.57
2018-12-17T16:39:24.335Z,15.93
2018-12-17T16:41:53.988Z,16.20
2018-12-17T16:44:23.780Z,15.97
2018-12-17T16:46:53.427Z,15.80
2018-12-17T16:49:23.072Z,15.70
2018-12-17T16:51:52.725Z,18.20
2018-12-17T16:54:22.372Z,17.07
2018-12-17T16:56:52.016Z,16.27
2018-12-17T16:59:21.652Z,16.87
2018-12-17T17:01:51.364Z,18.03
2018-12-17T17:04:21.035Z,17.63
2018-12-17T17:06:50.779Z,18.27
2018-12-17T17:09:20.515Z,18.10
2018-12-17T17:11:50.171Z,22.07
2018-12-17T17:14:19.867Z,17.50
2018-12-17T17:16:49.795Z,18.70
2018-12-17T17:19:19.436Z,20.47
2018-12-17T17:21:49.284Z,19.93
2018-12-17T17:24:18.992Z,19.77
2018-12-17T17:26:48.636Z,19.03
2018-12-17T17:29:18.367Z,18.43
2018-12-17T17:31:48.071Z,18.20
2018-12-17T17:34:17.716Z,20.63
2018-12-17T17:36:47.411Z,19.20
2018-12-17T17:39:17.064Z,19.33
2018-12-17T17:41:46.928Z,19.00
2018-12-17T17:44:16.571Z,19.27
2018-12-17T17:46:46.224Z,19.63
2018-12-17T17:49:15.866Z,23.03
2018-12-17T17:51:45.601Z,21.43
2018-12-17T17:54:15.312Z,20.73
2018-12-17T17:56:45.043Z,19.00
2018-12-17T17:59:16.006Z,20.17
2018-12-17T18:01:45.863Z,20.47
2018-12-17T18:04:15.639Z,20.10
2018-12-17T18:06:45.297Z,20.67
2018-12-17T18:09:15.000Z,19.00
2018-12-17T18:11:44.689Z,18.53
2018-12-17T18:14:14.344Z,19.03
2018-12-17T18:16:44.069Z,18.37
2018-12-17T18:19:13.749Z,18.23
2018-12-17T18:21:43.400Z,19.17
2018-12-17T18:24:13.047Z,20.53
2018-12-17T18:26:42.752Z,17.60
2018-12-17T18:29:12.411Z,17.90
2018-12-17T18:31:42.180Z,19.10
2018-12-17T18:34:12.151Z,17.97
2018-12-17T18:36:41.815Z,29.87
2018-12-17T18:39:11.711Z,18.97
2018-12-17T18:41:41.475Z,21.20
2018-12-17T18:44:11.200Z,20.53
2018-12-17T18:46:41.651Z,19.40
2018-12-17T18:49:11.322Z,19.30
2018-12-17T18:51:41.081Z,20.13
2018-12-17T18:54:10.869Z,17.90
2018-12-17T18:56:40.788Z,18.70
2018-12-17T18:59:10.502Z,19.13
2018-12-17T19:01:40.231Z,18.60
2018-12-17T19:04:10.020Z,18.40
2018-12-17T19:06:39.835Z,18.40
2018-12-17T19:09:09.515Z,17.27
2018-12-17T19:11:39.223Z,18.63
2018-12-17T19:14:09.045Z,18.00
2018-12-17T19:16:38.807Z,18.20
2018-12-17T19:19:08.479Z,22.37
2018-12-17T19:21:38.247Z,20.67
2018-12-17T19:24:08.016Z,18.30
2018-12-17T19:26:37.799Z,18.63
2018-12-17T19:29:07.761Z,18.80
2018-12-17T19:31:37.713Z,18.20
2018-12-17T19:34:07.463Z,18.90
2018-12-17T19:36:37.474Z,18.37
2018-12-17T19:39:08.036Z,19.67
2018-12-17T19:41:39.983Z,18.53
2018-12-17T19:44:09.643Z,18.17
2018-12-17T19:46:39.404Z,18.10
2018-12-17T19:49:09.088Z,17.23
2018-12-17T19:51:38.791Z,17.23
2018-12-17T19:54:08.466Z,16.43
2018-12-17T19:56:38.353Z,16.47
2018-12-17T19:59:09.056Z,17.57
2018-12-17T20:01:38.890Z,18.17
2018-12-17T20:04:08.587Z,19.13
2018-12-17T20:06:38.264Z,19.00
2018-12-17T20:09:08.112Z,17.53
2018-12-17T20:11:39.727Z,17.63
2018-12-17T20:14:09.392Z,16.63
2018-12-17T20:16:39.071Z,16.70
2018-12-17T20:19:08.738Z,15.37
2018-12-17T20:21:39.480Z,16.17
2018-12-17T20:24:09.290Z,15.70
2018-12-17T20:26:39.024Z,14.47
2018-12-17T20:29:08.723Z,15.00
2018-12-17T20:31:38.548Z,14.47
2018-12-17T20:34:08.480Z,14.67
2018-12-17T20:36:38.315Z,14.80
2018-12-17T20:39:08.425Z,14.07
2018-12-17T20:41:39.136Z,14.60
2018-12-17T20:44:08.892Z,14.97
2018-12-17T20:46:38.567Z,14.10
2018-12-17T20:49:08.236Z,14.13
2018-12-17T20:51:38.015Z,14.90
2018-12-17T20:54:07.741Z,15.23
2018-12-17T20:56:37.530Z,14.03
2018-12-17T20:59:07.243Z,15.87
2018-12-17T21:01:36.975Z,15.17
2018-12-17T21:04:06.706Z,13.63
2018-12-17T21:06:36.519Z,12.63
2018-12-17T21:09:08.269Z,11.60
2018-12-17T21:11:38.979Z,13.83
2018-12-17T21:14:08.721Z,14.50
2018-12-17T21:16:38.547Z,14.60
2018-12-17T21:19:08.263Z,12.87
2018-12-17T21:21:37.988Z,49.53
2018-12-17T21:24:07.680Z,22.60
2018-12-17T21:26:37.462Z,21.03
2018-12-17T21:29:07.132Z,12.07
2018-12-17T21:31:37.104Z,11.93
2018-12-17T21:34:06.807Z,17.33
2018-12-17T21:36:36.595Z,11.77
2018-12-17T21:39:07.227Z,10.97
2018-12-17T21:41:38.471Z,11.73
2018-12-17T21:44:08.180Z,12.40
2018-12-17T21:46:37.967Z,11.37
2018-12-17T21:49:07.787Z,10.33
2018-12-17T21:51:37.494Z,11.83
2018-12-17T21:54:07.227Z,10.37
2018-12-17T21:56:37.000Z,11.03
2018-12-17T21:59:06.885Z,10.73
2018-12-17T22:01:36.598Z,11.03
2018-12-17T22:04:06.306Z,11.87
2018-12-17T22:06:37.151Z,13.30
2018-12-17T22:09:07.739Z,12.03
2018-12-17T22:11:39.356Z,12.23
2018-12-17T22:14:09.060Z,13.20
2018-12-17T22:16:38.814Z,13.53
2018-12-17T22:19:08.680Z,13.80
2018-12-17T22:21:38.439Z,12.87
2018-12-17T22:24:08.241Z,13.90
2018-12-17T22:26:37.976Z,12.80
2018-12-17T22:29:07.648Z,13.17
2018-12-17T22:31:37.372Z,12.97
2018-12-17T22:34:07.130Z,13.10
2018-12-17T22:36:37.665Z,12.53
2018-12-17T22:39:07.467Z,12.60
2018-12-17T22:41:38.177Z,13.20
2018-12-17T22:44:07.916Z,12.53
2018-12-17T22:46:37.631Z,12.77
2018-12-17T22:49:07.303Z,12.17
2018-12-17T22:51:37.067Z,11.10
2018-12-17T22:54:06.750Z,12.60
2018-12-17T22:56:36.436Z,11.90
2018-12-17T22:59:06.223Z,12.23
2018-12-17T23:01:35.888Z,11.53
2018-12-17T23:04:05.577Z,10.90
2018-12-17T23:06:35.331Z,11.27
2018-12-17T23:09:06.282Z,11.47
2018-12-17T23:11:54.563Z,11.80
2018-12-17T23:14:35.535Z,11.70
2018-12-17T23:17:16.407Z,12.00
2018-12-17T23:19:46.975Z,11.87
2018-12-17T23:22:20.135Z,11.93
2018-12-17T23:24:51.875Z,16.07
2018-12-17T23:27:21.663Z,12.27
2018-12-17T23:29:51.416Z,12.43
2018-12-17T23:32:21.176Z,13.30
2018-12-17T23:34:50.819Z,12.37
2018-12-17T23:37:20.539Z,13.10
2018-12-17T23:39:50.341Z,12.23
2018-12-17T23:42:20.548Z,12.67
2018-12-17T23:44:50.192Z,12.37
2018-12-17T23:47:19.956Z,11.87
2018-12-17T23:49:49.813Z,12.20
2018-12-17T23:52:19.577Z,11.57
2018-12-17T23:54:49.232Z,11.87
2018-12-17T23:57:18.960Z,11.17
2018-12-17T23:59:48.655Z,11.23
